Time;durP1;ratioP1;P1;durP2;ratioP2;P2;SDS_P1;SDS_P2;PMS_P1;PMS_P2;Temp;Humidity;BMP_temperature;BMP_pressure;BME280_temperature;BME280_humidity;BME280_pressure;Samples;Min_cycle;Max_cycle;Signal;HPM_P1;HPM_P2
2022/07/09 00:00:22;;;;;;;;;;;;;;;27.71;31.42;99235.66;2087315;28;19977;-49
2022/07/09 00:01:23;;;;;;;;;;;;;;;27.70;31.49;99244.91;2085932;28;20002;-47
2022/07/09 00:02:24;;;;;;;;;;;;;;;27.67;31.25;99238.06;2082048;28;22497;-47
2022/07/09 00:03:25;;;;;;;;;;;;;;;27.68;31.50;99241.59;2086315;28;20019;-49
2022/07/09 00:04:26;;;;;;;;;;;;;;;27.67;31.72;99235.34;2088063;28;20600;-47
2022/07/09 00:05:28;;;;;;;;;;;;;;;27.69;31.50;99237.81;2089233;28;20086;-48
2022/07/09 00:06:28;;;;;;;;;;;;;;;27.68;31.32;99242.44;2090701;28;20514;-46
2022/07/09 00:07:30;;;;;;;;;;;;;;;27.68;31.35;99244.34;2088803;28;19967;-48
2022/07/09 00:08:30;;;;;;;;;;;;;;;27.69;31.31;99237.81;2088849;28;19935;-46
2022/07/09 00:09:32;;;;;;;;;;;;;;;27.68;31.44;99236.97;2088908;28;20559;-47
2022/07/09 00:10:34;;;;;;;;;;;;;;;27.69;31.52;99237.81;2082062;28;19928;-50
2022/07/09 00:11:35;;;;;;;;;;;;;;;27.67;31.48;99232.63;2089266;28;20021;-48
2022/07/09 00:12:36;;;;;;;;;;;;;;;27.66;31.20;99233.66;2087942;28;19929;-47
2022/07/09 00:13:38;;;;;;;;;;;;;;;27.66;31.40;99236.41;2086369;28;19978;-48
2022/07/09 00:14:38;;;;;;;;;;;;;;;27.66;31.45;99230.13;2088363;28;20002;-47
2022/07/09 00:15:40;;;;;;;;;;;;;;;27.66;31.37;99230.94;2086741;28;19980;-54
2022/07/09 00:16:40;;;;;;;;;;;;;;;27.67;31.92;99232.63;2088962;28;21194;-46
2022/07/09 00:17:42;;;;;;;;;;;;;;;27.66;31.71;99230.94;2087787;28;19938;-50
2022/07/09 00:18:42;;;;;;;;;;;;;;;27.65;31.42;99237.47;2087409;28;19928;-47
2022/07/09 00:19:44;;;;;;;;;;;;;;;27.66;31.86;99230.94;2086457;28;20043;-50
2022/07/09 00:20:44;;;;;;;;;;;;;;;27.66;32.03;99230.94;2086757;28;19935;-46
2022/07/09 00:21:46;;;;;;;;;;;;;;;27.67;31.57;99232.63;2088702;28;20612;-46
2022/07/09 00:22:46;;;;;;;;;;;;;;;27.66;31.81;99233.66;2089001;28;19932;-45
2022/07/09 00:23:48;;;;;;;;;;;;;;;27.66;31.51;99244.56;2085794;28;19932;-50
2022/07/09 00:24:49;;;;;;;;;;;;;;;27.66;31.71;99241.84;2081722;28;19925;-45
2022/07/09 00:25:52;;;;;;;;;;;;;;;27.67;31.58;99242.69;2089308;28;20305;-46
2022/07/09 00:26:53;;;;;;;;;;;;;;;27.62;31.63;99241.53;2083690;28;20001;-47
2022/07/09 00:27:54;;;;;;;;;;;;;;;27.64;31.75;99246.75;2089570;28;20540;-46
2022/07/09 00:28:55;;;;;;;;;;;;;;;27.62;31.60;99246.97;2086965;28;19924;-45
2022/07/09 00:29:57;;;;;;;;;;;;;;;27.65;31.38;99247.56;2088698;28;20047;-47
2022/07/09 00:30:57;;;;;;;;;;;;;;;27.65;31.69;99240.19;2089386;28;19931;-46
2022/07/09 00:31:59;;;;;;;;;;;;;;;27.65;31.74;99242.94;2088897;28;19924;-47
2022/07/09 00:32:59;;;;;;;;;;;;;;;27.66;31.45;99241.84;2085713;28;19940;-46
2022/07/09 00:34:01;;;;;;;;;;;;;;;27.65;31.81;99242.94;2088820;28;19935;-49
2022/07/09 00:35:01;;;;;;;;;;;;;;;27.65;31.72;99248.38;2085371;28;19935;-48
2022/07/09 00:36:03;;;;;;;;;;;;;;;27.65;31.90;99240.19;2088402;28;20348;-47
2022/07/09 00:37:05;;;;;;;;;;;;;;;27.64;32.05;99241.28;2088231;28;19932;-48
2022/07/09 00:38:06;;;;;;;;;;;;;;;27.63;31.81;99245.06;2087447;28;19928;-47
2022/07/09 00:39:07;;;;;;;;;;;;;;;27.63;32.02;99247.78;2088151;28;19929;-49
2022/07/09 00:40:08;;;;;;;;;;;;;;;27.64;31.97;99246.75;2088581;28;19929;-49
2022/07/09 00:41:10;;;;;;;;;;;;;;;27.64;31.58;99241.28;2088868;28;19928;-49
2022/07/09 00:42:12;;;;;;;;;;;;;;;27.62;31.95;99243.44;2089627;28;19966;-49
2022/07/09 00:43:17;;;;;;;;;;;;;;;27.61;31.98;99241.78;2088904;28;19928;-48
2022/07/09 00:44:18;;;;;;;;;;;;;;;27.60;31.93;99238.22;2089224;28;19932;-48
2022/07/09 00:45:19;;;;;;;;;;;;;;;27.59;31.79;99247.47;2087793;28;19939;-49
2022/07/09 00:46:20;;;;;;;;;;;;;;;27.57;31.98;99246.88;2090268;28;19960;-49
2022/07/09 00:47:21;;;;;;;;;;;;;;;27.58;32.11;99247.72;2090462;28;19924;-48
2022/07/09 00:48:22;;;;;;;;;;;;;;;27.59;31.97;99241.22;2088996;28;21977;-49
2022/07/09 00:49:24;;;;;;;;;;;;;;;27.58;31.76;99242.25;2085303;28;19933;-47
2022/07/09 00:50:25;;;;;;;;;;;;;;;27.58;31.50;99242.25;2090801;28;19928;-47
2022/07/09 00:51:26;;;;;;;;;;;;;;;27.58;31.57;99242.25;2088883;28;19924;-48
2022/07/09 00:52:28;;;;;;;;;;;;;;;27.58;31.58;99237.66;2089871;28;19934;-46
2022/07/09 00:53:28;;;;;;;;;;;;;;;27.59;31.54;99247.47;2091868;28;19925;-46
2022/07/09 00:54:30;;;;;;;;;;;;;;;27.59;32.00;99241.22;2085289;28;20369;-48
2022/07/09 00:55:31;;;;;;;;;;;;;;;27.60;31.47;99245.56;2084927;28;19959;-48
2022/07/09 00:56:34;;;;;;;;;;;;;;;27.61;31.77;99244.50;2091431;28;20351;-50
2022/07/09 00:57:34;;;;;;;;;;;;;;;27.60;31.44;99242.84;2091921;28;19948;-48
2022/07/09 00:58:37;;;;;;;;;;;;;;;27.59;31.68;99243.94;2088846;28;20041;-48
2022/07/09 00:59:38;;;;;;;;;;;;;;;27.59;31.44;99243.94;2089250;28;19928;-47
2022/07/09 01:00:39;;;;;;;;;;;;;;;27.59;31.67;99242.03;2089913;28;20030;-49
2022/07/09 01:01:40;;;;;;;;;;;;;;;27.60;31.49;99243.66;2091997;28;19932;-47
2022/07/09 01:02:42;;;;;;;;;;;;;;;27.59;31.83;99244.75;2089187;28;19935;-48
2022/07/09 01:03:42;;;;;;;;;;;;;;;27.58;31.70;99239.53;2091661;28;19987;-47
2022/07/09 01:04:44;;;;;;;;;;;;;;;27.57;31.41;99248.78;2090243;28;20604;-49
2022/07/09 01:05:45;;;;;;;;;;;;;;;27.56;31.48;99238.97;2089321;28;19924;-47
2022/07/09 01:06:46;;;;;;;;;;;;;;;27.56;31.76;99247.97;2090852;28;20005;-48
2022/07/09 01:07:47;;;;;;;;;;;;;;;27.54;31.93;99241.13;2090170;28;20593;-47
2022/07/09 01:08:48;;;;;;;;;;;;;;;27.55;31.46;99237.31;2090309;28;19929;-50
2022/07/09 01:09:49;;;;;;;;;;;;;;;27.56;31.35;99250.69;2088030;28;19929;-46
2022/07/09 01:10:52;;;;;;;;;;;;;;;27.55;31.66;99242.75;2087216;28;20016;-48
2022/07/09 01:11:54;;;;;;;;;;;;;;;27.54;31.52;99241.13;2090400;28;19935;-47
2022/07/09 01:12:56;;;;;;;;;;;;;;;27.52;31.86;99238.63;2089743;28;19928;-47
2022/07/09 01:13:57;;;;;;;;;;;;;;;27.53;31.60;99244.94;2091481;28;19971;-51
2022/07/09 01:14:59;;;;;;;;;;;;;;;27.51;31.25;99244.34;2090892;28;19985;-47
2022/07/09 01:15:59;;;;;;;;;;;;;;;27.50;31.48;99243.53;2087511;28;19932;-46
2022/07/09 01:17:01;;;;;;;;;;;;;;;27.51;31.11;99238.88;2090524;28;19925;-47
2022/07/09 01:18:02;;;;;;;;;;;;;;;27.49;30.96;99238.31;2090892;28;19932;-50
2022/07/09 01:19:03;;;;;;;;;;;;;;;27.48;30.84;99236.66;2090393;28;19933;-49
2022/07/09 01:20:05;;;;;;;;;;;;;;;27.46;31.12;99233.34;2090999;28;19932;-46
2022/07/09 01:21:07;;;;;;;;;;;;;;;27.47;31.17;99241.28;2090499;28;19951;-49
2022/07/09 01:22:09;;;;;;;;;;;;;;;27.46;31.11;99230.63;2090562;28;19959;-46
2022/07/09 01:23:11;;;;;;;;;;;;;;;27.46;31.20;99236.06;2090560;28;19939;-49
2022/07/09 01:24:11;;;;;;;;;;;;;;;27.46;31.42;99233.34;2089575;28;20629;-46
2022/07/09 01:25:17;;;;;;;;;;;;;;;27.45;31.17;99227.09;2085561;28;19934;-46
2022/07/09 01:26:19;;;;;;;;;;;;;;;27.46;31.52;99228.72;2089757;28;19934;-48
2022/07/09 01:27:21;;;;;;;;;;;;;;;27.46;31.53;99236.06;2091623;28;19924;-49
2022/07/09 01:28:21;;;;;;;;;;;;;;;27.46;31.33;99227.91;2087042;28;20090;-48
2022/07/09 01:29:23;;;;;;;;;;;;;;;27.47;31.53;99235.84;2090177;28;20333;-47
2022/07/09 01:30:25;;;;;;;;;;;;;;;27.47;31.23;99224.09;2089012;28;19967;-47
2022/07/09 01:31:26;;;;;;;;;;;;;;;27.48;31.66;99229.31;2091382;28;19925;-47
2022/07/09 01:32:27;;;;;;;;;;;;;;;27.49;31.32;99224.69;2090808;28;19925;-47
2022/07/09 01:33:28;;;;;;;;;;;;;;;27.50;31.53;99231.81;2090791;28;19976;-47
2022/07/09 01:34:29;;;;;;;;;;;;;;;27.48;30.90;99218.41;2089572;28;19935;-48
2022/07/09 01:35:31;;;;;;;;;;;;;;;27.48;30.89;99220.31;2087699;28;20020;-49
2022/07/09 01:36:33;;;;;;;;;;;;;;;27.49;31.13;99219.22;2087491;28;20590;-46
2022/07/09 01:37:35;;;;;;;;;;;;;;;27.48;31.26;99220.31;2088785;28;19956;-46
2022/07/09 01:38:35;;;;;;;;;;;;;;;27.46;30.82;99219.72;2090363;28;20797;-48
2022/07/09 01:39:49;;;;;;;;;;;;;;;27.49;31.04;99222.78;2090758;28;19925;-48
2022/07/09 01:40:50;;;;;;;;;;;;;;;27.47;30.92;99219.50;2087060;28;19924;-48
2022/07/09 01:41:52;;;;;;;;;;;;;;;27.47;30.81;99216.78;2090528;28;19972;-48
2022/07/09 01:42:53;;;;;;;;;;;;;;;27.45;31.08;99216.19;2089106;28;20583;-49
2022/07/09 01:43:54;;;;;;;;;;;;;;;27.46;30.99;99220.56;2091876;28;19929;-47
2022/07/09 01:44:55;;;;;;;;;;;;;;;27.45;30.92;99215.38;2088478;28;19939;-47
2022/07/09 01:45:56;;;;;;;;;;;;;;;27.44;30.88;99219.16;2089425;28;20282;-48
2022/07/09 01:46:57;;;;;;;;;;;;;;;27.42;30.54;99216.69;2090459;28;19925;-46
2022/07/09 01:47:58;;;;;;;;;;;;;;;27.43;31.15;99222.97;2091010;28;19982;-48
2022/07/09 01:48:59;;;;;;;;;;;;;;;27.42;30.54;99213.16;2086455;28;19944;-49
2022/07/09 01:50:01;;;;;;;;;;;;;;;27.40;31.05;99218.81;2090289;28;20088;-47
2022/07/09 01:51:01;;;;;;;;;;;;;;;27.38;31.06;99216.34;2088967;28;21207;-47
2022/07/09 01:52:05;;;;;;;;;;;;;;;27.39;30.91;99212.56;2090383;28;19935;-46
2022/07/09 01:53:05;;;;;;;;;;;;;;;27.40;30.91;99216.91;2087557;28;19932;-49
2022/07/09 01:54:07;;;;;;;;;;;;;;;27.40;30.92;99218.81;2091045;28;19925;-46
2022/07/09 01:55:08;;;;;;;;;;;;;;;27.40;31.00;99219.66;2081274;28;19932;-49
2022/07/09 01:56:11;;;;;;;;;;;;;;;27.39;31.16;99223.47;2088762;28;19933;-47
2022/07/09 01:57:11;;;;;;;;;;;;;;;27.39;31.20;99215.28;2090924;28;19928;-46
2022/07/09 01:58:13;;;;;;;;;;;;;;;27.39;31.03;99217.19;2090202;28;19976;-47
2022/07/09 01:59:14;;;;;;;;;;;;;;;27.38;30.54;99210.88;2088540;28;19935;-49
2022/07/09 02:00:18;;;;;;;;;;;;;;;27.38;30.68;99210.06;2089069;28;20015;-49
2022/07/09 02:01:18;;;;;;;;;;;;;;;27.39;30.74;99209.00;2088940;28;19932;-46
2022/07/09 02:02:20;;;;;;;;;;;;;;;27.38;30.54;99216.34;2090704;28;20587;-48
2022/07/09 02:03:22;;;;;;;;;;;;;;;27.37;30.36;99220.16;2089959;28;20065;-47
2022/07/09 02:04:24;;;;;;;;;;;;;;;27.37;30.29;99219.31;2089865;28;19932;-48
2022/07/09 02:05:24;;;;;;;;;;;;;;;27.34;30.22;99217.09;2090853;28;19932;-49
2022/07/09 02:06:26;;;;;;;;;;;;;;;27.32;30.38;99220.06;2090446;28;20613;-48
2022/07/09 02:07:28;;;;;;;;;;;;;;;27.29;30.61;99214.28;2089881;28;19928;-46
2022/07/09 02:08:29;;;;;;;;;;;;;;;27.28;30.99;99227.09;2089861;28;19924;-47
2022/07/09 02:09:30;;;;;;;;;;;;;;;27.28;30.78;99221.63;2088059;28;19928;-49
2022/07/09 02:10:32;;;;;;;;;;;;;;;27.31;30.95;99221.13;2085487;28;20349;-47
2022/07/09 02:11:32;;;;;;;;;;;;;;;27.31;31.27;99220.31;2088382;28;20382;-46
2022/07/09 02:12:34;;;;;;;;;;;;;;;27.31;31.01;99221.13;2088962;28;20031;-48
2022/07/09 02:13:34;;;;;;;;;;;;;;;27.31;31.20;99225.75;2092174;28;19924;-48
2022/07/09 02:14:36;;;;;;;;;;;;;;;27.32;31.04;99217.34;2091022;28;20414;-46
2022/07/09 02:15:37;;;;;;;;;;;;;;;27.33;30.91;99215.44;2091313;28;20305;-47
2022/07/09 02:16:38;;;;;;;;;;;;;;;27.35;30.83;99221.47;2090941;28;19968;-46
2022/07/09 02:17:39;;;;;;;;;;;;;;;27.34;30.83;99215.19;2087465;28;19933;-54
2022/07/09 02:18:40;;;;;;;;;;;;;;;27.33;30.66;99213.56;2090741;28;19928;-49
2022/07/09 02:19:41;;;;;;;;;;;;;;;27.33;31.24;99216.28;2091551;28;20349;-47
2022/07/09 02:20:42;;;;;;;;;;;;;;;27.33;31.10;99215.44;2091844;28;19924;-48
2022/07/09 02:21:43;;;;;;;;;;;;;;;27.33;30.65;99216.28;2086167;28;19947;-46
2022/07/09 02:22:46;;;;;;;;;;;;;;;27.31;30.71;99217.59;2087831;28;19939;-47
2022/07/09 02:23:48;;;;;;;;;;;;;;;27.32;31.19;99217.34;2087609;28;19985;-50
2022/07/09 02:24:50;;;;;;;;;;;;;;;27.31;30.85;99215.69;2083669;28;19933;-47
2022/07/09 02:25:50;;;;;;;;;;;;;;;27.32;30.92;99216.50;2088353;28;19932;-48
2022/07/09 02:26:52;;;;;;;;;;;;;;;27.30;31.14;99214.06;2089927;28;19958;-47
2022/07/09 02:27:53;;;;;;;;;;;;;;;27.31;31.04;99215.69;2090138;28;19928;-46
2022/07/09 02:28:54;;;;;;;;;;;;;;;27.31;31.09;99215.69;2090059;28;20216;-48
2022/07/09 02:29:55;;;;;;;;;;;;;;;27.29;31.42;99214.28;2090225;28;19928;-50
2022/07/09 02:30:57;;;;;;;;;;;;;;;27.30;31.53;99211.31;2089503;28;20047;-47
2022/07/09 02:31:58;;;;;;;;;;;;;;;27.32;31.10;99214.59;2088780;28;19932;-46
2022/07/09 02:32:59;;;;;;;;;;;;;;;27.32;31.52;99206.44;2089322;28;19928;-47
2022/07/09 02:34:00;;;;;;;;;;;;;;;27.31;30.92;99206.69;2079373;28;20517;-45
2022/07/09 02:35:01;;;;;;;;;;;;;;;27.29;31.07;99198.75;2089248;28;19939;-46
2022/07/09 02:36:02;;;;;;;;;;;;;;;27.28;31.32;99209.91;2089358;28;20294;-46
2022/07/09 02:37:04;;;;;;;;;;;;;;;27.28;31.41;99210.75;2089338;28;19931;-47
2022/07/09 02:38:06;;;;;;;;;;;;;;;27.29;30.99;99206.94;2089212;28;19932;-48
2022/07/09 02:39:07;;;;;;;;;;;;;;;27.29;31.26;99203.38;2088844;28;19950;-48
2022/07/09 02:40:08;;;;;;;;;;;;;;;27.29;31.66;99203.38;2083501;28;19939;-49
2022/07/09 02:41:10;;;;;;;;;;;;;;;27.29;31.24;99200.66;2089671;28;19932;-47
2022/07/09 02:42:10;;;;;;;;;;;;;;;27.27;31.12;99200.91;2090853;28;19939;-47
2022/07/09 02:43:12;;;;;;;;;;;;;;;27.28;31.53;99199.84;2086242;28;21391;-49
2022/07/09 02:44:13;;;;;;;;;;;;;;;27.26;30.98;99206.63;2090776;28;19932;-47
2022/07/09 02:45:14;;;;;;;;;;;;;;;27.27;30.83;99205.53;2090757;28;20911;-48
2022/07/09 02:46:15;;;;;;;;;;;;;;;27.26;31.21;99201.16;2091962;28;19944;-49
2022/07/09 02:47:16;;;;;;;;;;;;;;;27.26;31.23;99209.34;2091720;28;19960;-51
2022/07/09 02:48:17;;;;;;;;;;;;;;;27.26;30.91;99201.97;2090619;28;19929;-48
2022/07/09 02:49:21;;;;;;;;;;;;;;;27.27;31.01;99209.06;2091799;28;20352;-47
2022/07/09 02:50:21;;;;;;;;;;;;;;;27.25;30.98;99205.78;2089618;28;20515;-46
2022/07/09 02:51:23;;;;;;;;;;;;;;;27.24;30.98;99200.56;2090511;28;19999;-49
2022/07/09 02:52:23;;;;;;;;;;;;;;;27.25;31.27;99204.97;2089716;28;19955;-50
2022/07/09 02:53:27;;;;;;;;;;;;;;;27.24;31.07;99208.75;2091842;28;20406;-45
2022/07/09 02:54:27;;;;;;;;;;;;;;;27.23;31.28;99205.19;2091157;28;19928;-49
2022/07/09 02:55:29;;;;;;;;;;;;;;;27.23;31.09;99205.19;2085592;28;20326;-48
2022/07/09 02:56:29;;;;;;;;;;;;;;;27.24;30.92;99208.75;2092147;28;19931;-47
2022/07/09 02:57:31;;;;;;;;;;;;;;;27.24;31.29;99206.03;2091422;28;19935;-45
2022/07/09 02:58:32;;;;;;;;;;;;;;;27.23;31.09;99207.94;2090067;28;19951;-50
2022/07/09 02:59:33;;;;;;;;;;;;;;;27.22;31.34;99206.28;2090599;28;20011;-49
2022/07/09 03:00:34;;;;;;;;;;;;;;;27.23;31.67;99209.81;2089086;28;19936;-47
2022/07/09 03:01:35;;;;;;;;;;;;;;;27.23;31.40;99207.94;2090616;28;19930;-50
2022/07/09 03:02:36;;;;;;;;;;;;;;;27.23;31.65;99207.94;2085856;28;20135;-49
2022/07/09 03:03:37;;;;;;;;;;;;;;;27.26;31.85;99207.44;2083882;28;20018;-50
2022/07/09 03:04:38;;;;;;;;;;;;;;;27.28;31.85;99205.28;2087035;28;19932;-47
2022/07/09 03:05:40;;;;;;;;;;;;;;;27.29;31.85;99204.22;2087025;28;19928;-52
2022/07/09 03:06:40;;;;;;;;;;;;;;;27.33;32.46;99201.81;2086883;28;20555;-49
2022/07/09 03:07:42;;;;;;;;;;;;;;;27.33;32.18;99199.09;2088217;28;20007;-48
2022/07/09 03:08:44;;;;;;;;;;;;;;;27.31;32.42;99199.34;2091030;28;20018;-50
2022/07/09 03:09:45;;;;;;;;;;;;;;;27.32;32.65;99201.00;2089756;28;19978;-50
2022/07/09 03:10:46;;;;;;;;;;;;;;;27.34;32.22;99196.13;2087843;28;19935;-50
2022/07/09 03:11:48;;;;;;;;;;;;;;;27.37;32.93;99200.25;2086907;28;20022;-50
2022/07/09 03:12:48;;;;;;;;;;;;;;;27.39;32.69;99196.22;2082885;28;19949;-49
2022/07/09 03:13:50;;;;;;;;;;;;;;;27.40;32.70;99200.56;2087034;28;20784;-50
2022/07/09 03:14:50;;;;;;;;;;;;;;;27.42;32.84;99200.34;2086994;28;19929;-49
2022/07/09 03:15:52;;;;;;;;;;;;;;;27.39;33.06;99203.56;2084605;28;20022;-53
2022/07/09 03:16:52;;;;;;;;;;;;;;;27.39;33.26;99207.13;2081402;28;19932;-50
2022/07/09 03:17:54;;;;;;;;;;;;;;;27.39;33.77;99204.38;2082571;28;19934;-49
2022/07/09 03:18:55;;;;;;;;;;;;;;;27.39;33.30;99209.00;2086420;28;20010;-47
2022/07/09 03:19:56;;;;;;;;;;;;;;;27.37;33.50;99209.25;2089608;28;19935;-49
2022/07/09 03:20:57;;;;;;;;;;;;;;;27.36;33.61;99206.78;2085554;28;19924;-49
2022/07/09 03:21:58;;;;;;;;;;;;;;;27.37;32.98;99206.53;2089596;28;19952;-49
2022/07/09 03:22:59;;;;;;;;;;;;;;;27.34;32.95;99203.47;2092412;28;19933;-47
2022/07/09 03:24:02;;;;;;;;;;;;;;;27.35;33.28;99205.13;2089396;28;19942;-48
2022/07/09 03:25:03;;;;;;;;;;;;;;;27.33;32.43;99210.84;2089503;28;19931;-48
2022/07/09 03:26:05;;;;;;;;;;;;;;;27.34;33.08;99208.94;2088501;28;19976;-50
2022/07/09 03:27:05;;;;;;;;;;;;;;;27.35;33.11;99205.13;2086916;28;20489;-49
2022/07/09 03:28:07;;;;;;;;;;;;;;;27.35;33.88;99205.94;2083893;28;19988;-48
2022/07/09 03:29:08;;;;;;;;;;;;;;;27.40;34.22;99213.38;2083728;28;19939;-50
2022/07/09 03:30:10;;;;;;;;;;;;;;;27.43;34.85;99206.63;2084866;28;20034;-49
2022/07/09 03:31:11;;;;;;;;;;;;;;;27.44;35.00;99211.78;2088507;28;20353;-46
2022/07/09 03:32:13;;;;;;;;;;;;;;;27.44;34.68;99214.50;2089025;28;19990;-49
2022/07/09 03:33:13;;;;;;;;;;;;;;;27.45;34.64;99208.03;2086861;28;19988;-48
2022/07/09 03:34:15;;;;;;;;;;;;;;;27.46;34.83;99211.56;2086350;28;20676;-48
2022/07/09 03:35:15;;;;;;;;;;;;;;;27.46;34.83;99211.56;2087286;28;19935;-50
2022/07/09 03:36:17;;;;;;;;;;;;;;;27.47;35.19;99213.19;2091213;28;19935;-48
2022/07/09 03:37:17;;;;;;;;;;;;;;;27.48;35.24;99209.41;2090910;28;19928;-52
2022/07/09 03:38:19;;;;;;;;;;;;;;;27.48;35.03;99217.59;2089959;28;20632;-49
2022/07/09 03:39:21;;;;;;;;;;;;;;;27.48;35.45;99206.69;2089721;28;20400;-51
2022/07/09 03:40:23;;;;;;;;;;;;;;;27.48;35.40;99214.88;2084316;28;19928;-52
2022/07/09 03:41:25;;;;;;;;;;;;;;;27.48;35.77;99212.97;2087382;28;20465;-48
2022/07/09 03:42:25;;;;;;;;;;;;;;;27.49;35.83;99211.06;2092000;28;20027;-48
2022/07/09 03:43:27;;;;;;;;;;;;;;;27.50;35.60;99213.56;2090626;28;19996;-51
2022/07/09 03:44:27;;;;;;;;;;;;;;;27.49;35.79;99211.88;2091266;28;19978;-50
2022/07/09 03:45:29;;;;;;;;;;;;;;;27.50;35.69;99210.00;2089988;28;19928;-48
2022/07/09 03:46:29;;;;;;;;;;;;;;;27.50;36.02;99210.00;2088248;28;19939;-48
2022/07/09 03:47:31;;;;;;;;;;;;;;;27.49;36.16;99208.34;2091601;28;19939;-50
2022/07/09 03:48:33;;;;;;;;;;;;;;;27.51;35.90;99214.38;2092111;28;19929;-51
2022/07/09 03:49:34;;;;;;;;;;;;;;;27.51;35.89;99211.66;2092626;28;19928;-48
2022/07/09 03:50:35;;;;;;;;;;;;;;;27.50;35.90;99212.72;2090843;28;19924;-49
2022/07/09 03:51:37;;;;;;;;;;;;;;;27.50;36.02;99207.28;2091199;28;19963;-51
2022/07/09 03:52:38;;;;;;;;;;;;;;;27.50;36.37;99210.81;2091349;28;20471;-50
2022/07/09 03:53:39;;;;;;;;;;;;;;;27.50;36.22;99208.09;2092102;28;20001;-50
2022/07/09 03:54:41;;;;;;;;;;;;;;;27.52;36.10;99213.28;2089938;28;19932;-49
2022/07/09 03:55:43;;;;;;;;;;;;;;;27.52;36.09;99207.84;2092989;28;19924;-49
2022/07/09 03:56:43;;;;;;;;;;;;;;;27.51;36.40;99220.63;2092692;28;19925;-49
2022/07/09 03:57:45;;;;;;;;;;;;;;;27.51;36.11;99214.38;2092412;28;19970;-49
2022/07/09 03:58:46;;;;;;;;;;;;;;;27.52;36.51;99210.56;2092277;28;19929;-50
2022/07/09 03:59:48;;;;;;;;;;;;;;;27.52;36.15;99205.13;2092440;28;19978;-47
2022/07/09 04:00:48;;;;;;;;;;;;;;;27.52;36.64;99214.09;2089497;28;20343;-47
2022/07/09 04:01:50;;;;;;;;;;;;;;;27.52;36.66;99218.72;2092324;28;19963;-48
2022/07/09 04:02:50;;;;;;;;;;;;;;;27.53;36.30;99220.41;2092023;28;20375;-48
2022/07/09 04:03:52;;;;;;;;;;;;;;;27.53;36.80;99221.22;2088147;28;19983;-49
2022/07/09 04:04:56;;;;;;;;;;;;;;;27.53;36.73;99214.97;2092613;28;20015;-49
2022/07/09 04:05:57;;;;;;;;;;;;;;;27.53;36.36;99217.69;2087908;28;19939;-48
2022/07/09 04:06:58;;;;;;;;;;;;;;;27.54;36.42;99219.31;2090371;28;19929;-48
2022/07/09 04:08:00;;;;;;;;;;;;;;;27.53;36.82;99217.69;2091337;28;20086;-48
2022/07/09 04:09:04;;;;;;;;;;;;;;;27.53;36.57;99223.13;2089746;28;19924;-50
2022/07/09 04:10:07;;;;;;;;;;;;;;;27.53;36.49;99228.56;2091911;28;20353;-51
2022/07/09 04:11:08;;;;;;;;;;;;;;;27.52;36.53;99233.19;2091266;28;19928;-49
2022/07/09 04:12:10;;;;;;;;;;;;;;;27.53;37.05;99228.56;2090060;28;19976;-49
2022/07/09 04:13:10;;;;;;;;;;;;;;;27.53;36.97;99234.03;2091024;28;19932;-51
2022/07/09 04:14:12;;;;;;;;;;;;;;;27.54;36.76;99235.66;2091922;28;20019;-48
2022/07/09 04:15:12;;;;;;;;;;;;;;;27.55;37.15;99229.13;2091152;28;19975;-49
2022/07/09 04:16:14;;;;;;;;;;;;;;;27.54;36.82;99231.03;2089477;28;20191;-49
2022/07/09 04:17:14;;;;;;;;;;;;;;;27.54;37.00;99235.66;2091961;28;19935;-50
2022/07/09 04:18:16;;;;;;;;;;;;;;;27.54;36.70;99233.75;2091351;28;19924;-51
2022/07/09 04:19:17;;;;;;;;;;;;;;;27.54;36.75;99238.38;2089110;28;19928;-50
2022/07/09 04:20:18;;;;;;;;;;;;;;;27.53;36.90;99231.31;2091330;28;20354;-49
2022/07/09 04:21:21;;;;;;;;;;;;;;;27.54;36.93;99230.22;2091836;28;19924;-51
2022/07/09 04:22:23;;;;;;;;;;;;;;;27.54;36.71;99232.94;2090498;28;20405;-48
2022/07/09 04:23:23;;;;;;;;;;;;;;;27.55;36.86;99235.44;2092190;28;19928;-48
2022/07/09 04:24:25;;;;;;;;;;;;;;;27.54;36.74;99235.66;2089652;28;20345;-49
2022/07/09 04:25:27;;;;;;;;;;;;;;;27.53;36.87;99232.13;2080232;28;19983;-49
2022/07/09 04:26:29;;;;;;;;;;;;;;;27.54;37.10;99233.75;2087191;28;19925;-52
2022/07/09 04:27:29;;;;;;;;;;;;;;;27.54;37.08;99235.66;2091232;28;19928;-50
2022/07/09 04:28:31;;;;;;;;;;;;;;;27.55;36.99;99231.84;2091820;28;19928;-51
2022/07/09 04:29:31;;;;;;;;;;;;;;;27.54;37.39;99241.13;2086292;28;19940;-49
2022/07/09 04:30:33;;;;;;;;;;;;;;;27.52;37.30;99241.34;2090901;28;19928;-47
2022/07/09 04:31:34;;;;;;;;;;;;;;;27.54;37.40;99241.94;2087517;28;19929;-49
2022/07/09 04:32:35;;;;;;;;;;;;;;;27.54;36.90;99239.22;2093395;28;19925;-50
2022/07/09 04:33:36;;;;;;;;;;;;;;;27.54;37.00;99241.94;2092524;28;19929;-50
2022/07/09 04:34:37;;;;;;;;;;;;;;;27.54;37.22;99243.84;2090545;28;20133;-48
2022/07/09 04:35:38;;;;;;;;;;;;;;;27.55;37.24;99237.31;2091513;28;19924;-47
2022/07/09 04:36:40;;;;;;;;;;;;;;;27.54;37.54;99241.94;2091571;28;19935;-51
2022/07/09 04:37:41;;;;;;;;;;;;;;;27.54;37.10;99246.56;2090752;28;19932;-49
2022/07/09 04:38:43;;;;;;;;;;;;;;;27.55;37.20;99245.47;2091457;28;19936;-51
2022/07/09 04:39:43;;;;;;;;;;;;;;;27.55;37.35;99245.47;2087477;28;20812;-52
2022/07/09 04:40:46;;;;;;;;;;;;;;;27.54;37.26;99238.38;2091686;28;19928;-54
2022/07/09 04:41:47;;;;;;;;;;;;;;;27.54;37.59;99250.13;2088830;28;19924;-52
2022/07/09 04:42:48;;;;;;;;;;;;;;;27.54;37.62;99243.84;2090545;28;20978;-49
2022/07/09 04:43:49;;;;;;;;;;;;;;;27.53;37.33;99242.19;2091473;28;19935;-50
2022/07/09 04:44:50;;;;;;;;;;;;;;;27.53;37.61;99239.47;2091701;28;19924;-49
2022/07/09 04:45:51;;;;;;;;;;;;;;;27.54;37.29;99241.94;2091868;28;19944;-49
2022/07/09 04:46:53;;;;;;;;;;;;;;;27.54;37.26;99243.84;2092248;28;19934;-52
2022/07/09 04:47:53;;;;;;;;;;;;;;;27.54;37.60;99243.84;2092607;28;19939;-55
2022/07/09 04:48:55;;;;;;;;;;;;;;;27.55;37.66;99248.22;2091173;28;20232;-50
2022/07/09 04:49:55;;;;;;;;;;;;;;;27.54;37.78;99246.56;2087719;28;19987;-53
2022/07/09 04:50:57;;;;;;;;;;;;;;;27.54;37.58;99241.13;2088729;28;20367;-50
2022/07/09 04:51:57;;;;;;;;;;;;;;;27.54;37.44;99244.66;2087864;28;19935;-52
2022/07/09 04:52:59;;;;;;;;;;;;;;;27.53;37.38;99251.19;2089875;28;20605;-48
2022/07/09 04:53:59;;;;;;;;;;;;;;;27.54;37.53;99241.94;2090820;28;19933;-51
2022/07/09 04:55:01;;;;;;;;;;;;;;;27.54;37.86;99241.13;2088760;28;19931;-50
2022/07/09 04:56:03;;;;;;;;;;;;;;;27.55;37.60;99242.75;2087465;28;19929;-50
2022/07/09 04:57:05;;;;;;;;;;;;;;;27.53;37.91;99243.03;2082406;28;20010;-51
2022/07/09 04:58:06;;;;;;;;;;;;;;;27.54;37.51;99236.50;2091360;28;19925;-51
2022/07/09 04:59:08;;;;;;;;;;;;;;;27.52;37.68;99241.34;2088951;28;20638;-48
2022/07/09 05:00:10;;;;;;;;;;;;;;;27.55;37.57;99240.03;2088703;28;19925;-52
2022/07/09 05:01:12;;;;;;;;;;;;;;;27.53;37.68;99243.03;2091240;28;20020;-49
2022/07/09 05:02:13;;;;;;;;;;;;;;;27.53;37.69;99244.94;2090767;28;19947;-50
2022/07/09 05:03:15;;;;;;;;;;;;;;;27.56;37.93;99247.16;2090381;28;19928;-51
2022/07/09 05:04:16;;;;;;;;;;;;;;;27.55;38.00;99242.75;2089866;28;19925;-48
2022/07/09 05:05:21;;;;;;;;;;;;;;;27.54;37.59;99246.56;2091368;28;19928;-51
2022/07/09 05:06:22;;;;;;;;;;;;;;;27.53;37.98;99239.47;2091342;28;19928;-47
2022/07/09 05:07:24;;;;;;;;;;;;;;;27.55;37.60;99242.75;2090751;28;20348;-52
2022/07/09 05:08:25;;;;;;;;;;;;;;;27.53;38.08;99243.03;2090853;28;19960;-47
2022/07/09 05:09:26;;;;;;;;;;;;;;;27.55;37.95;99246.34;2088649;28;19935;-52
2022/07/09 05:10:27;;;;;;;;;;;;;;;27.55;37.68;99251.78;2088907;28;19925;-47
2022/07/09 05:11:30;;;;;;;;;;;;;;;27.56;37.65;99247.16;2088201;28;19924;-51
2022/07/09 05:12:31;;;;;;;;;;;;;;;27.54;38.03;99249.28;2088925;28;20385;-50
2022/07/09 05:13:32;;;;;;;;;;;;;;;27.53;38.17;99244.94;2089542;28;19936;-54
2022/07/09 05:14:33;;;;;;;;;;;;;;;27.53;38.04;99248.47;2089376;28;20556;-52
2022/07/09 05:15:34;;;;;;;;;;;;;;;27.54;37.78;99255.56;2090407;28;19929;-49
2022/07/09 05:16:35;;;;;;;;;;;;;;;27.55;37.96;99254.50;2089437;28;19924;-47
2022/07/09 05:17:36;;;;;;;;;;;;;;;27.55;38.04;99253.66;2090544;28;19936;-52
2022/07/09 05:18:38;;;;;;;;;;;;;;;27.55;37.94;99256.38;2089304;28;20501;-52
2022/07/09 05:19:38;;;;;;;;;;;;;;;27.55;38.25;99248.22;2087152;28;19933;-51